Latest Weather Observations for Thevenard Island

IDW60801

Issued at 2:14 pm WST Tuesday 20 April 2021 (issued every 10 minutes, with the page automatically refreshed every 10 minutes)

About weather observations | Map of weather stations | Latest weather observations for WA | Other Formats
Station Details ID: 005084 Name: THEVENARD ISLAND Lat: -21.46 Lon: 115.02 Height: 5.0 m
Data from the previous 72 hours. | See also: Recent months at Thevenard Island
Date/Time
WST
Temp
°C
App
Temp
°C
Dew
Point
°C
Rel
Hum
%
Delta-T
°C
Wind Press
QNH
hPa
Press
MSL
hPa
Rain since
9am
mm
Dir  Spd
km/h
Gust
km/h
Spd
kts
Gust
kts
20/02:00pm 29.3 - - - - W 20 30 11 16 1011.6 1011.6 0.0
20/01:30pm 28.5 - - - - WSW 20 26 11 14 1011.8 1011.8 0.0
20/01:00pm 28.6 - - - - WSW 17 20 9 11 1012.1 1012.1 0.0
20/12:30pm 28.3 - - - - SW 13 17 7 9 1012.4 1012.4 0.0
20/12:00pm 27.5 - - - - SW 15 19 8 10 1012.9 1012.9 0.0
20/11:30am 26.8 - - - - SW 13 19 7 10 1013.4 1013.4 0.0
20/11:00am 26.7 - - - - S 11 13 6 7 1013.5 1013.5 0.0
20/10:30am 26.1 - - - - S 11 15 6 8 1013.8 1013.8 0.0
20/10:00am 26.4 - - - - S 15 19 8 10 1013.7 1013.7 0.0
20/09:30am 25.6 - - - - S 15 19 8 10 1013.6 1013.6 0.0
20/09:00am 25.1 - - - - SSE 15 19 8 10 1013.7 1013.7 0.0
20/08:30am 24.7 - - - - S 13 19 7 10 1013.7 1013.7 0.0
20/08:00am 24.1 - - - - S 11 17 6 9 1013.3 1013.3 0.0
20/07:30am 23.9 - - - - S 22 26 12 14 1013.1 1013.1 0.0
20/07:00am 23.7 - - - - S 20 24 11 13 1012.7 1012.7 0.0
20/06:30am 23.9 - - - - SSE 24 33 13 18 1012.3 1012.3 0.0
20/06:00am 23.7 - - - - SE 13 20 7 11 1012.3 1012.3 0.0
20/05:30am 24.3 - - - - S 30 41 16 22 1011.5 1011.5 0.0
20/05:00am 24.3 - - - - S 32 39 17 21 1011.2 1011.2 0.0
20/04:30am 24.4 - - - - SSW 32 39 17 21 1011.1 1011.1 0.0
20/04:00am 24.6 - - - - SSW 28 33 15 18 1011.1 1011.1 0.0
20/03:30am 24.9 - - - - SSW 30 35 16 19 1011.1 1011.1 0.0
20/03:00am 25.0 - - - - SSW 30 37 16 20 1011.0 1011.0 0.0
20/02:30am 25.5 - - - - SSW 28 37 15 20 1011.2 1011.2 0.0
20/02:00am 26.0 - - - - SSW 30 37 16 20 1011.5 1011.5 0.0
20/01:30am 26.5 - - - - SSW 33 43 18 23 1011.7 1011.7 0.0
20/01:00am 26.5 - - - - SW 33 41 18 22 1011.8 1011.8 0.0
20/12:30am 26.3 - - - - SW 30 39 16 21 1011.9 1011.9 0.0
20/12:00am 26.3 - - - - SW 30 35 16 19 1012.0 1012.0 0.0
 
Date/Time
WST
Temp
°C
App
Temp
°C
Dew
Point
°C
Rel
Hum
%
Delta-T
°C
Wind Press
QNH
hPa
Press
MSL
hPa
Rain since
9am
mm
Dir  Spd
km/h
Gust
km/h
Spd
kts
Gust
kts
19/11:30pm 26.4 - - - - SW 30 35 16 19 1012.4 1012.4 0.0
19/11:00pm 26.3 - - - - SW 28 35 15 19 1012.6 1012.6 0.0
19/10:30pm 26.4 - - - - SW 30 37 16 20 1012.9 1012.9 0.0
19/10:00pm 26.6 - - - - SW 28 35 15 19 1013.1 1013.1 0.0
19/09:30pm 27.1 - - - - SW 28 35 15 19 1013.0 1013.0 0.0
19/09:00pm 27.1 - - - - SW 24 32 13 17 1013.0 1013.0 0.0
19/08:30pm 27.3 - - - - SW 28 37 15 20 1012.9 1012.9 0.0
19/08:00pm 27.6 - - - - SW 26 33 14 18 1012.7 1012.7 0.0
19/07:30pm 27.7 - - - - WSW 24 32 13 17 1012.7 1012.7 0.0
19/07:00pm 27.4 - - - - W 20 30 11 16 1012.6 1012.6 0.0
19/06:30pm 27.9 - - - - WSW 20 28 11 15 1012.5 1012.5 0.0
19/06:00pm 27.9 - - - - W 15 19 8 10 1012.3 1012.3 0.0
19/05:30pm 28.8 - - - - W 20 28 11 15 1012.1 1012.1 0.0
19/05:00pm 29.5 - - - - W 22 30 12 16 1011.9 1011.9 0.0
19/04:30pm 30.1 - - - - WSW 22 28 12 15 1012.0 1012.0 0.0
19/04:00pm 30.8 - - - - WSW 22 30 12 16 1012.0 1012.0 0.0
19/03:30pm 31.7 - - - - WSW 20 28 11 15 1012.0 1012.0 0.0
19/03:00pm 30.6 - - - - WSW 24 32 13 17 1012.2 1012.2 0.0
19/02:30pm 30.2 - - - - WSW 24 32 13 17 1012.3 1012.3 0.0
19/02:00pm 30.7 - - - - WSW 24 30 13 16 1012.5 1012.5 0.0
19/01:30pm 30.7 - - - - WSW 22 28 12 15 1012.8 1012.8 0.0
19/01:00pm 30.1 - - - - WSW 20 26 11 14 1013.1 1013.1 0.0
19/12:30pm 29.5 - - - - SW 20 24 11 13 1013.6 1013.6 0.0
19/12:00pm 29.7 - - - - SSW 17 22 9 12 1014.1 1014.1 0.0
19/11:30am 28.7 - - - - SSW 17 22 9 12 1014.6 1014.6 0.0
19/11:00am 28.3 - - - - SSW 17 22 9 12 1015.0 1015.0 0.0
19/10:30am 27.9 - - - - SSW 19 24 10 13 1015.3 1015.3 0.0
19/10:00am 26.9 - - - - SSW 20 28 11 15 1015.6 1015.6 0.0
19/09:30am 26.3 - - - - S 22 26 12 14 1015.7 1015.7 0.0
19/09:00am 25.7 - - - - SSW 26 30 14 16 1015.7 1015.7 0.0
19/08:30am 25.4 - - - - SSW 30 33 16 18 1015.3 1015.3 0.0
19/08:00am 25.2 - - - - S 30 35 16 19 1015.4 1015.4 0.0
19/07:30am 25.0 - - - - SSW 30 37 16 20 1015.3 1015.3 0.0
19/07:00am 24.9 - - - - SSW 30 35 16 19 1015.1 1015.1 0.0
19/06:30am 25.1 - - - - SSW 28 32 15 17 1014.7 1014.7 0.0
19/06:00am 25.4 - - - - S 24 30 13 16 1014.5 1014.5 0.0
19/05:30am 25.4 - - - - S 22 28 12 15 1014.5 1014.5 0.0
19/05:00am 25.5 - - - - SSW 20 24 11 13 1014.3 1014.3 0.0
19/04:30am 25.8 - - - - SSW 22 28 12 15 1014.3 1014.3 0.0
19/04:00am 25.7 - - - - SSW 24 28 13 15 1014.4 1014.4 0.0
19/03:30am 25.7 - - - - SSW 20 28 11 15 1014.4 1014.4 0.0
19/03:00am 25.8 - - - - SSW 22 26 12 14 1014.5 1014.5 0.0
19/02:30am 25.7 - - - - SSW 20 26 11 14 1014.8 1014.8 0.0
19/02:00am 25.9 - - - - SSW 20 26 11 14 1015.0 1015.0 0.0
19/01:30am 26.0 - - - - SSW 20 26 11 14 1015.0 1015.0 0.0
19/01:00am 26.1 - - - - SSW 20 24 11 13 1015.4 1015.4 0.0
19/12:30am 26.3 - - - - SSW 20 26 11 14 1015.7 1015.7 0.0
19/12:00am 26.7 - - - - SSW 20 26 11 14 1015.7 1015.7 0.0
 
Date/Time
WST
Temp
°C
App
Temp
°C
Dew
Point
°C
Rel
Hum
%
Delta-T
°C
Wind Press
QNH
hPa
Press
MSL
hPa
Rain since
9am
mm
Dir  Spd
km/h
Gust
km/h
Spd
kts
Gust
kts
18/11:30pm 27.0 - - - - SSW 22 26 12 14 1016.0 1016.0 0.0
18/11:00pm 27.1 - - - - SSW 22 28 12 15 1016.0 1016.0 0.0
18/10:30pm 27.3 - - - - SSW 20 28 11 15 1016.3 1016.3 0.0
18/10:00pm 25.4 - - - - W 9 11 5 6 1016.5 1016.5 0.0
18/09:30pm 25.4 - - - - W 9 11 5 6 1016.6 1016.6 0.0
18/09:00pm 25.4 - - - - W 11 11 6 6 1016.5 1016.5 0.0
18/08:30pm 25.4 - - - - W 11 13 6 7 1016.4 1016.4 0.0
18/08:00pm 25.4 - - - - W 13 15 7 8 1016.3 1016.3 0.0
18/07:30pm 25.7 - - - - W 13 13 7 7 1016.0 1016.0 0.0
18/07:00pm 26.2 - - - - W 13 15 7 8 1015.8 1015.8 0.0
18/06:30pm 26.9 - - - - WNW 13 15 7 8 1015.5 1015.5 0.0
18/06:00pm 28.8 - - - - WNW 9 11 5 6 1015.4 1015.4 0.0
18/05:30pm 30.2 - - - - NW 13 17 7 9 1015.1 1015.1 0.0
18/05:00pm 30.6 - - - - NNW 15 19 8 10 1014.8 1014.8 0.0
18/04:30pm 30.9 - - - - NNW 15 19 8 10 1014.8 1014.8 0.0
18/04:00pm 31.4 - - - - NW 13 19 7 10 1014.8 1014.8 0.0
18/03:30pm 31.7 - - - - NNW 13 20 7 11 1014.8 1014.8 0.0
18/03:00pm 32.1 - - - - NNW 11 15 6 8 1015.0 1015.0 0.0
18/02:30pm 32.8 - - - - N 11 15 6 8 1015.0 1015.0 0.0
18/02:00pm 32.1 - - - - SW 11 15 6 8 1015.1 1015.1 0.0
18/01:30pm 32.9 - - - - SSW 11 13 6 7 1015.2 1015.2 0.0
18/01:00pm 32.7 - - - - S 7 11 4 6 1015.7 1015.7 0.0
18/12:30pm 31.6 - - - - SE 7 13 4 7 1016.2 1016.2 0.0
18/12:00pm 31.0 - - - - SSW 11 13 6 7 1016.4 1016.4 0.0
18/11:30am 31.0 - - - - S 11 13 6 7 1016.7 1016.7 0.0
18/11:00am 30.4 - - - - SE 11 13 6 7 1017.1 1017.1 0.0
18/10:30am 29.7 - - - - SE 13 15 7 8 1017.4 1017.4 0.0
18/10:00am 29.4 - - - - SE 15 17 8 9 1017.7 1017.7 0.0
18/09:30am 29.2 - - - - SE 15 20 8 11 1017.5 1017.5 0.0
18/09:00am 28.7 - - - - SE 17 20 9 11 1017.6 1017.6 0.0
18/08:30am 28.1 - - - - SE 19 22 10 12 1017.5 1017.5 0.0
18/08:00am 27.6 - - - - SSE 19 24 10 13 1017.4 1017.4 0.0
18/07:30am 26.7 - - - - SE 22 28 12 15 1017.2 1017.2 0.0
18/07:00am 26.4 - - - - SSE 24 28 13 15 1016.8 1016.8 0.0
18/06:30am 26.0 - - - - SSE 26 30 14 16 1016.6 1016.6 0.0
18/06:00am 25.9 - - - - SSE 26 30 14 16 1016.4 1016.4 0.0
18/05:30am 26.0 - - - - SSE 28 32 15 17 1016.0 1016.0 0.0
18/05:00am 26.2 - - - - SSE 28 32 15 17 1015.8 1015.8 0.0
18/04:30am 26.3 - - - - S 30 35 16 19 1015.6 1015.6 0.0
18/04:00am 26.7 - - - - S 32 37 17 20 1015.3 1015.3 0.0
18/03:30am 27.0 - - - - S 32 37 17 20 1015.3 1015.3 0.0
18/03:00am 27.0 - - - - S 30 35 16 19 1015.4 1015.4 0.0
18/02:30am 27.5 - - - - S 32 39 17 21 1015.6 1015.6 0.0
18/02:00am 27.5 - - - - S 35 41 19 22 1015.7 1015.7 0.0
18/01:30am 27.7 - - - - S 35 41 19 22 1015.7 1015.7 0.0
18/01:00am 27.9 - - - - S 33 43 18 23 1015.9 1015.9 0.0
18/12:30am 28.1 - - - - S 32 43 17 23 1016.2 1016.2 0.0
18/12:00am 28.3 - - - - SSW 30 39 16 21 1016.3 1016.3 0.0
 
Date/Time
WST
Temp
°C
App
Temp
°C
Dew
Point
°C
Rel
Hum
%
Delta-T
°C
Wind Press
QNH
hPa
Press
MSL
hPa
Rain since
9am
mm
Dir  Spd
km/h
Gust
km/h
Spd
kts
Gust
kts
17/11:30pm 28.5 - - - - SSW 35 44 19 24 1016.6 1016.6 0.0
17/11:00pm 28.7 - - - - SSW 28 33 15 18 1016.4 1016.4 0.0
17/10:30pm 28.3 - - - - SW 22 30 12 16 1016.7 1016.7 0.0
17/10:00pm 28.2 - - - - SW 20 26 11 14 1016.9 1016.9 0.0
17/09:30pm 28.1 - - - - SW 19 24 10 13 1017.0 1017.0 0.0
17/09:00pm 27.4 - - - - WSW 13 17 7 9 1016.9 1016.9 0.0
17/08:30pm 25.8 - - - - WNW 11 13 6 7 1016.9 1016.9 0.0
17/08:00pm 25.8 - - - - WNW 11 13 6 7 1016.7 1016.7 0.0
17/07:30pm 25.9 - - - - WNW 13 13 7 7 1016.4 1016.4 0.0
17/07:00pm 26.5 - - - - WNW 11 13 6 7 1016.2 1016.2 0.0
17/06:30pm 27.2 - - - - WNW 11 11 6 6 1016.0 1016.0 0.0
17/06:00pm 28.7 - - - - WNW 11 13 6 7 1015.7 1015.7 0.0
17/05:30pm 29.8 - - - - NW 11 15 6 8 1015.5 1015.5 0.0
17/05:00pm 30.1 - - - - NW 11 13 6 7 1015.3 1015.3 0.0
17/04:30pm 30.6 - - - - NNW 13 17 7 9 1015.3 1015.3 0.0
17/04:00pm 30.8 - - - - N 13 17 7 9 1015.3 1015.3 0.0
17/03:30pm 31.4 - - - - N 13 17 7 9 1015.3 1015.3 0.0
17/03:00pm 31.4 - - - - N 20 24 11 13 1015.2 1015.2 0.0
17/02:30pm 32.1 - - - - N 15 20 8 11 1015.4 1015.4 0.0

Other formats

Comma delimited format used in spreadsheet applications
http://www.bom.gov.au/fwo/IDW60801/IDW60801.94303.axf

JavaScript Object Notation format (JSON) in row-major order
http://www.bom.gov.au/fwo/IDW60801/IDW60801.94303.json

Data quality

Most of these data are generated automatically and are frequently updated. Quality checks on data are not normally performed. It is possible for incorrect values to appear. Refer to information at About Latest Weather Observations and please check the disclaimer before using these data.